sensor_id;sensor_type;location;lat;lon;timestamp;pressure;altitude;pressure_sealevel;temperature;humidity
75646;BME280;64237;52.438;13.240;2023-02-22T00:01:30;101294.75;;;7.68;81.11
75646;BME280;64237;52.438;13.240;2023-02-22T00:04:15;101300.44;;;7.67;80.92
75646;BME280;64237;52.438;13.240;2023-02-22T00:06:46;101289.44;;;7.60;81.00
75646;BME280;64237;52.438;13.240;2023-02-22T00:09:15;101286.03;;;7.58;81.17
75646;BME280;64237;52.438;13.240;2023-02-22T00:11:46;101285.84;;;7.53;81.35
75646;BME280;64237;52.438;13.240;2023-02-22T00:14:11;101289.00;;;7.50;80.96
75646;BME280;64237;52.438;13.240;2023-02-22T00:16:37;101285.81;;;7.46;81.74
75646;BME280;64237;52.438;13.240;2023-02-22T00:19:02;101284.31;;;7.37;81.65
75646;BME280;64237;52.438;13.240;2023-02-22T00:21:30;101282.63;;;7.36;81.61
75646;BME280;64237;52.438;13.240;2023-02-22T00:23:55;101279.88;;;7.30;81.36
75646;BME280;64237;52.438;13.240;2023-02-22T00:26:21;101281.94;;;7.21;81.76
75646;BME280;64237;52.438;13.240;2023-02-22T00:28:49;101280.66;;;7.17;82.31
75646;BME280;64237;52.438;13.240;2023-02-22T00:31:15;101290.41;;;7.13;82.33
75646;BME280;64237;52.438;13.240;2023-02-22T00:33:41;101289.56;;;7.19;83.15
75646;BME280;64237;52.438;13.240;2023-02-22T00:36:08;101282.38;;;7.18;81.95
75646;BME280;64237;52.438;13.240;2023-02-22T00:38:34;101289.78;;;7.11;82.41
75646;BME280;64237;52.438;13.240;2023-02-22T00:40:59;101286.75;;;6.99;82.73
75646;BME280;64237;52.438;13.240;2023-02-22T00:43:25;101295.22;;;6.98;83.54
75646;BME280;64237;52.438;13.240;2023-02-22T00:45:50;101285.69;;;6.87;83.44
75646;BME280;64237;52.438;13.240;2023-02-22T00:48:16;101281.63;;;6.83;84.04
75646;BME280;64237;52.438;13.240;2023-02-22T00:50:41;101286.28;;;6.82;83.64
75646;BME280;64237;52.438;13.240;2023-02-22T00:53:06;101286.25;;;6.69;84.01
75646;BME280;64237;52.438;13.240;2023-02-22T00:55:35;101293.81;;;6.61;84.39
75646;BME280;64237;52.438;13.240;2023-02-22T00:58:01;101284.84;;;6.52;84.40
75646;BME280;64237;52.438;13.240;2023-02-22T01:00:30;101288.25;;;6.47;83.96
75646;BME280;64237;52.438;13.240;2023-02-22T01:02:56;101291.41;;;6.44;84.58
75646;BME280;64237;52.438;13.240;2023-02-22T01:05:27;101275.91;;;6.37;84.59
75646;BME280;64237;52.438;13.240;2023-02-22T01:07:54;101284.34;;;6.35;85.15
75646;BME280;64237;52.438;13.240;2023-02-22T01:10:22;101275.50;;;6.40;85.54
75646;BME280;64237;52.438;13.240;2023-02-22T01:12:49;101286.09;;;6.43;85.39
75646;BME280;64237;52.438;13.240;2023-02-22T01:15:18;101289.09;;;6.48;84.40
75646;BME280;64237;52.438;13.240;2023-02-22T01:17:47;101280.84;;;6.48;84.54
75646;BME280;64237;52.438;13.240;2023-02-22T01:20:12;101290.81;;;6.56;84.51
75646;BME280;64237;52.438;13.240;2023-02-22T01:22:39;101278.56;;;6.58;84.15
75646;BME280;64237;52.438;13.240;2023-02-22T01:25:06;101284.47;;;6.55;84.12
75646;BME280;64237;52.438;13.240;2023-02-22T01:27:33;101275.97;;;6.50;83.75
75646;BME280;64237;52.438;13.240;2023-02-22T01:29:59;101267.81;;;6.29;83.77
75646;BME280;64237;52.438;13.240;2023-02-22T01:32:25;101270.91;;;6.12;84.06
75646;BME280;64237;52.438;13.240;2023-02-22T01:34:53;101268.94;;;6.06;84.98
75646;BME280;64237;52.438;13.240;2023-02-22T01:37:19;101271.72;;;5.85;85.98
75646;BME280;64237;52.438;13.240;2023-02-22T01:39:44;101269.13;;;5.77;86.45
75646;BME280;64237;52.438;13.240;2023-02-22T01:42:10;101271.63;;;5.72;86.09
75646;BME280;64237;52.438;13.240;2023-02-22T01:44:37;101272.41;;;5.66;86.38
75646;BME280;64237;52.438;13.240;2023-02-22T01:47:05;101256.41;;;5.69;86.63
75646;BME280;64237;52.438;13.240;2023-02-22T01:49:44;101268.69;;;5.73;86.24
75646;BME280;64237;52.438;13.240;2023-02-22T01:52:13;101269.06;;;5.70;86.45
75646;BME280;64237;52.438;13.240;2023-02-22T01:54:41;101277.63;;;5.82;86.18
75646;BME280;64237;52.438;13.240;2023-02-22T01:57:30;101263.78;;;5.90;85.32
75646;BME280;64237;52.438;13.240;2023-02-22T02:00:00;101267.94;;;5.86;85.77
75646;BME280;64237;52.438;13.240;2023-02-22T02:02:34;101269.94;;;5.71;86.12
75646;BME280;64237;52.438;13.240;2023-02-22T02:04:59;101258.84;;;5.58;86.02
75646;BME280;64237;52.438;13.240;2023-02-22T02:07:25;101263.41;;;5.50;86.35
75646;BME280;64237;52.438;13.240;2023-02-22T02:09:56;101269.03;;;5.42;86.64
75646;BME280;64237;52.438;13.240;2023-02-22T02:12:22;101264.09;;;5.31;87.21
75646;BME280;64237;52.438;13.240;2023-02-22T02:14:48;101271.66;;;5.29;87.27
75646;BME280;64237;52.438;13.240;2023-02-22T02:17:16;101267.81;;;5.24;87.56
75646;BME280;64237;52.438;13.240;2023-02-22T02:20:10;101260.19;;;5.19;87.32
75646;BME280;64237;52.438;13.240;2023-02-22T02:39:18;101251.84;;;5.55;86.92
75646;BME280;64237;52.438;13.240;2023-02-22T02:41:48;101253.75;;;5.55;86.95
75646;BME280;64237;52.438;13.240;2023-02-22T02:47:00;101247.56;;;5.74;85.83
75646;BME280;64237;52.438;13.240;2023-02-22T02:52:19;101252.53;;;5.64;87.06
75646;BME280;64237;52.438;13.240;2023-02-22T02:54:46;101235.19;;;5.57;86.99
75646;BME280;64237;52.438;13.240;2023-02-22T02:57:12;101254.38;;;5.78;86.26
75646;BME280;64237;52.438;13.240;2023-02-22T02:59:38;101248.34;;;5.68;86.72
75646;BME280;64237;52.438;13.240;2023-02-22T03:10:44;101254.16;;;6.01;86.03
75646;BME280;64237;52.438;13.240;2023-02-22T03:21:58;101243.88;;;5.88;87.06
75646;BME280;64237;52.438;13.240;2023-02-22T03:24:30;101247.28;;;5.90;86.86
75646;BME280;64237;52.438;13.240;2023-02-22T03:27:11;101245.59;;;5.89;87.04
75646;BME280;64237;52.438;13.240;2023-02-22T03:29:41;101249.66;;;5.93;87.41
75646;BME280;64237;52.438;13.240;2023-02-22T03:32:13;101244.59;;;5.97;86.80
75646;BME280;64237;52.438;13.240;2023-02-22T03:34:43;101247.41;;;6.03;87.20
75646;BME280;64237;52.438;13.240;2023-02-22T03:37:17;101239.22;;;6.16;87.11
75646;BME280;64237;52.438;13.240;2023-02-22T03:39:44;101237.38;;;6.24;86.77
75646;BME280;64237;52.438;13.240;2023-02-22T03:42:15;101242.88;;;6.24;87.07
75646;BME280;64237;52.438;13.240;2023-02-22T03:44:42;101247.13;;;6.26;86.48
75646;BME280;64237;52.438;13.240;2023-02-22T03:47:12;101249.41;;;6.23;87.41
75646;BME280;64237;52.438;13.240;2023-02-22T03:49:50;101238.19;;;6.17;86.57
75646;BME280;64237;52.438;13.240;2023-02-22T03:52:17;101245.38;;;6.18;87.50
75646;BME280;64237;52.438;13.240;2023-02-22T03:54:43;101247.22;;;6.11;87.27
75646;BME280;64237;52.438;13.240;2023-02-22T03:57:14;101245.38;;;6.18;88.19
75646;BME280;64237;52.438;13.240;2023-02-22T03:59:42;101234.00;;;6.22;87.27
75646;BME280;64237;52.438;13.240;2023-02-22T04:02:07;101237.38;;;6.24;87.77
75646;BME280;64237;52.438;13.240;2023-02-22T04:04:33;101248.38;;;6.24;87.17
75646;BME280;64237;52.438;13.240;2023-02-22T04:06:58;101238.03;;;6.26;87.71
75646;BME280;64237;52.438;13.240;2023-02-22T04:09:24;101235.69;;;6.23;87.48
75646;BME280;64237;52.438;13.240;2023-02-22T04:11:49;101248.38;;;6.24;88.16
75646;BME280;64237;52.438;13.240;2023-02-22T04:14:14;101241.81;;;6.25;87.29
75646;BME280;64237;52.438;13.240;2023-02-22T04:16:40;101233.59;;;6.31;87.78
75646;BME280;64237;52.438;13.240;2023-02-22T04:19:05;101247.78;;;6.35;87.03
75646;BME280;64237;52.438;13.240;2023-02-22T04:21:31;101243.75;;;6.31;87.66
75646;BME280;64237;52.438;13.240;2023-02-22T04:23:57;101245.44;;;6.32;87.33
75646;BME280;64237;52.438;13.240;2023-02-22T04:26:22;101241.19;;;6.29;87.07
75646;BME280;64237;52.438;13.240;2023-02-22T04:28:47;101236.25;;;6.11;88.40
75646;BME280;64237;52.438;13.240;2023-02-22T04:31:13;101236.34;;;6.25;87.78
75646;BME280;64237;52.438;13.240;2023-02-22T04:33:39;101239.53;;;6.35;87.71
75646;BME280;64237;52.438;13.240;2023-02-22T04:36:05;101225.16;;;6.33;88.04
75646;BME280;64237;52.438;13.240;2023-02-22T04:38:30;101232.34;;;6.34;87.88
75646;BME280;64237;52.438;13.240;2023-02-22T04:40:55;101231.28;;;6.35;88.18
75646;BME280;64237;52.438;13.240;2023-02-22T04:43:21;101224.50;;;6.31;87.44
75646;BME280;64237;52.438;13.240;2023-02-22T04:45:46;101222.81;;;6.30;87.25
75646;BME280;64237;52.438;13.240;2023-02-22T04:48:12;101229.84;;;6.39;87.31
75646;BME280;64237;52.438;13.240;2023-02-22T04:50:37;101226.84;;;6.34;87.64
75646;BME280;64237;52.438;13.240;2023-02-22T04:53:03;101235.50;;;6.31;88.10
75646;BME280;64237;52.438;13.240;2023-02-22T04:55:29;101222.22;;;6.34;88.30
75646;BME280;64237;52.438;13.240;2023-02-22T04:57:55;101227.34;;;6.44;88.02
75646;BME280;64237;52.438;13.240;2023-02-22T05:00:22;101230.94;;;6.51;88.01
75646;BME280;64237;52.438;13.240;2023-02-22T05:02:49;101221.84;;;6.44;87.11
75646;BME280;64237;52.438;13.240;2023-02-22T05:05:16;101223.31;;;6.40;88.32
75646;BME280;64237;52.438;13.240;2023-02-22T05:07:42;101232.38;;;6.40;88.27
75646;BME280;64237;52.438;13.240;2023-02-22T05:10:08;101223.09;;;6.41;88.42
75646;BME280;64237;52.438;13.240;2023-02-22T05:12:34;101224.19;;;6.47;87.45
75646;BME280;64237;52.438;13.240;2023-02-22T05:15:00;101214.66;;;6.43;87.94
75646;BME280;64237;52.438;13.240;2023-02-22T05:17:25;101207.50;;;6.48;88.50
75646;BME280;64237;52.438;13.240;2023-02-22T05:19:51;101220.19;;;6.56;87.80
75646;BME280;64237;52.438;13.240;2023-02-22T05:22:16;101216.78;;;6.54;87.48
75646;BME280;64237;52.438;13.240;2023-02-22T05:24:42;101213.00;;;6.55;88.27
75646;BME280;64237;52.438;13.240;2023-02-22T05:27:08;101215.31;;;6.51;87.34
75646;BME280;64237;52.438;13.240;2023-02-22T05:29:33;101218.25;;;6.50;87.27
75646;BME280;64237;52.438;13.240;2023-02-22T05:31:58;101220.16;;;6.43;87.32
75646;BME280;64237;52.438;13.240;2023-02-22T05:34:24;101215.06;;;6.40;88.45
75646;BME280;64237;52.438;13.240;2023-02-22T05:36:49;101213.34;;;6.39;88.52
75646;BME280;64237;52.438;13.240;2023-02-22T05:39:15;101216.09;;;6.39;88.30
75646;BME280;64237;52.438;13.240;2023-02-22T05:41:40;101216.75;;;6.41;87.95
75646;BME280;64237;52.438;13.240;2023-02-22T05:44:06;101204.88;;;6.34;88.84
75646;BME280;64237;52.438;13.240;2023-02-22T05:46:31;101203.41;;;6.38;88.85
75646;BME280;64237;52.438;13.240;2023-02-22T05:48:56;101222.69;;;6.51;88.15
75646;BME280;64237;52.438;13.240;2023-02-22T05:51:22;101232.03;;;6.57;87.19
75646;BME280;64237;52.438;13.240;2023-02-22T05:53:48;101222.69;;;6.51;87.78
75646;BME280;64237;52.438;13.240;2023-02-22T05:56:26;101233.72;;;6.58;87.78
75646;BME280;64237;52.438;13.240;2023-02-22T05:58:52;101235.03;;;6.62;87.86
75646;BME280;64237;52.438;13.240;2023-02-22T06:01:18;101229.09;;;6.58;87.08
75646;BME280;64237;52.438;13.240;2023-02-22T06:03:48;101234.97;;;6.55;88.26
75646;BME280;64237;52.438;13.240;2023-02-22T06:06:14;101230.78;;;6.59;87.27
75646;BME280;64237;52.438;13.240;2023-02-22T06:08:40;101225.00;;;6.41;88.63
75646;BME280;64237;52.438;13.240;2023-02-22T06:11:05;101243.88;;;6.57;88.08
75646;BME280;64237;52.438;13.240;2023-02-22T06:13:31;101236.69;;;6.56;87.63
75646;BME280;64237;52.438;13.240;2023-02-22T06:15:57;101239.72;;;6.68;87.81
75646;BME280;64237;52.438;13.240;2023-02-22T06:18:23;101244.56;;;6.72;88.07
75646;BME280;64237;52.438;13.240;2023-02-22T06:20:51;101227.81;;;6.61;87.61
75646;BME280;64237;52.438;13.240;2023-02-22T06:23:16;101243.09;;;6.70;87.27
75646;BME280;64237;52.438;13.240;2023-02-22T06:25:42;101238.88;;;6.74;86.97
75646;BME280;64237;52.438;13.240;2023-02-22T06:28:07;101243.31;;;6.75;86.66
75646;BME280;64237;52.438;13.240;2023-02-22T06:30:33;101244.41;;;6.80;87.03
75646;BME280;64237;52.438;13.240;2023-02-22T06:32:58;101241.88;;;6.85;87.89
75646;BME280;64237;52.438;13.240;2023-02-22T06:35:23;101247.59;;;6.84;86.48
75646;BME280;64237;52.438;13.240;2023-02-22T06:37:49;101253.09;;;6.84;86.83
75646;BME280;64237;52.438;13.240;2023-02-22T06:40:18;101256.69;;;6.84;87.45
75646;BME280;64237;52.438;13.240;2023-02-22T06:42:43;101263.44;;;6.82;87.41
75646;BME280;64237;52.438;13.240;2023-02-22T06:45:11;101270.63;;;6.83;87.56
75646;BME280;64237;52.438;13.240;2023-02-22T06:47:38;101260.06;;;6.86;87.18
75646;BME280;64237;52.438;13.240;2023-02-22T06:52:41;101265.56;;;6.86;86.54
75646;BME280;64237;52.438;13.240;2023-02-22T06:55:06;101265.56;;;6.93;87.67
75646;BME280;64237;52.438;13.240;2023-02-22T06:57:38;101273.41;;;6.96;87.02
75646;BME280;64237;52.438;13.240;2023-02-22T07:00:04;101269.88;;;7.09;86.51
75646;BME280;64237;52.438;13.240;2023-02-22T07:02:30;101271.56;;;7.10;86.72
75646;BME280;64237;52.438;13.240;2023-02-22T07:07:25;101271.94;;;6.94;86.42
75646;BME280;64237;52.438;13.240;2023-02-22T07:09:50;101276.19;;;7.03;85.13
75646;BME280;64237;52.438;13.240;2023-02-22T07:12:15;101277.28;;;7.08;85.60
75646;BME280;64237;52.438;13.240;2023-02-22T07:14:41;101276.03;;;7.11;86.43
75646;BME280;64237;52.438;13.240;2023-02-22T07:17:06;101267.75;;;7.11;86.18
75646;BME280;64237;52.438;13.240;2023-02-22T07:19:32;101271.56;;;7.16;85.56
75646;BME280;64237;52.438;13.240;2023-02-22T07:21:57;101275.38;;;7.15;85.82
75646;BME280;64237;52.438;13.240;2023-02-22T07:24:24;101273.69;;;7.08;85.22
75646;BME280;64237;52.438;13.240;2023-02-22T07:26:50;101274.53;;;7.15;85.08
75646;BME280;64237;52.438;13.240;2023-02-22T07:29:16;101278.38;;;7.14;85.22
75646;BME280;64237;52.438;13.240;2023-02-22T07:31:41;101271.16;;;7.13;84.98
75646;BME280;64237;52.438;13.240;2023-02-22T07:34:06;101270.34;;;7.26;85.22
75646;BME280;64237;52.438;13.240;2023-02-22T07:36:32;101268.19;;;7.21;84.29
75646;BME280;64237;52.438;13.240;2023-02-22T07:38:57;101266.97;;;7.30;83.78
75646;BME280;64237;52.438;13.240;2023-02-22T07:41:22;101273.75;;;7.34;84.11
75646;BME280;64237;52.438;13.240;2023-02-22T07:43:48;101274.56;;;7.28;84.43
75646;BME280;64237;52.438;13.240;2023-02-22T07:46:14;101267.59;;;7.39;84.13
75646;BME280;64237;52.438;13.240;2023-02-22T07:48:39;101270.78;;;7.42;83.39
75646;BME280;64237;52.438;13.240;2023-02-22T07:51:04;101268.66;;;7.44;83.82
75646;BME280;64237;52.438;13.240;2023-02-22T07:53:31;101265.28;;;7.36;83.44
75646;BME280;64237;52.438;13.240;2023-02-22T07:56:03;101278.81;;;7.44;83.72
75646;BME280;64237;52.438;13.240;2023-02-22T07:58:30;101281.38;;;7.32;83.50
75646;BME280;64237;52.438;13.240;2023-02-22T08:00:56;101280.06;;;7.28;83.24
75646;BME280;64237;52.438;13.240;2023-02-22T08:03:24;101276.69;;;7.39;83.94
75646;BME280;64237;52.438;13.240;2023-02-22T08:05:54;101281.06;;;9.10;92.94
75646;BME280;64237;52.438;13.240;2023-02-22T08:08:21;101275.50;;;9.17;76.62
75646;BME280;64237;52.438;13.240;2023-02-22T08:10:48;101278.28;;;8.72;77.86
75646;BME280;64237;52.438;13.240;2023-02-22T08:13:14;101278.34;;;8.46;79.07
75646;BME280;64237;52.438;13.240;2023-02-22T08:15:41;101274.78;;;8.32;79.68
75646;BME280;64237;52.438;13.240;2023-02-22T08:18:10;101280.53;;;8.11;79.27
75646;BME280;64237;52.438;13.240;2023-02-22T08:20:38;101288.16;;;8.02;80.05
75646;BME280;64237;52.438;13.240;2023-02-22T08:23:05;101280.94;;;8.01;79.67
75646;BME280;64237;52.438;13.240;2023-02-22T08:25:31;101278.19;;;8.01;80.29
75646;BME280;64237;52.438;13.240;2023-02-22T08:27:59;101282.44;;;8.04;80.78
75646;BME280;64237;52.438;13.240;2023-02-22T08:30:26;101273.78;;;8.00;79.71
75646;BME280;64237;52.438;13.240;2023-02-22T08:32:52;101279.03;;;8.02;81.04
75646;BME280;64237;52.438;13.240;2023-02-22T08:35:19;101280.53;;;7.91;80.70
75646;BME280;64237;52.438;13.240;2023-02-22T08:37:50;101283.09;;;7.99;80.54
75646;BME280;64237;52.438;13.240;2023-02-22T08:40:17;101274.16;;;8.04;80.47
75646;BME280;64237;52.438;13.240;2023-02-22T08:42:43;101279.47;;;8.18;81.18
75646;BME280;64237;52.438;13.240;2023-02-22T08:45:10;101272.88;;;8.19;80.26
75646;BME280;64237;52.438;13.240;2023-02-22T08:47:36;101273.31;;;8.10;80.02
75646;BME280;64237;52.438;13.240;2023-02-22T08:50:01;101277.97;;;8.09;79.87
75646;BME280;64237;52.438;13.240;2023-02-22T08:52:27;101282.22;;;8.18;80.98
75646;BME280;64237;52.438;13.240;2023-02-22T08:54:52;101273.53;;;8.21;79.83
75646;BME280;64237;52.438;13.240;2023-02-22T08:57:17;101275.63;;;8.26;77.98
75646;BME280;64237;52.438;13.240;2023-02-22T08:59:43;101277.34;;;8.34;77.40
75646;BME280;64237;52.438;13.240;2023-02-22T09:02:16;101273.53;;;8.21;78.51
75646;BME280;64237;52.438;13.240;2023-02-22T09:04:43;101279.44;;;8.25;78.13
75646;BME280;64237;52.438;13.240;2023-02-22T09:07:09;101280.91;;;8.27;78.01
75646;BME280;64237;52.438;13.240;2023-02-22T09:09:34;101271.16;;;8.32;77.92
75646;BME280;64237;52.438;13.240;2023-02-22T09:12:00;101270.34;;;8.38;78.00
75646;BME280;64237;52.438;13.240;2023-02-22T09:14:26;101267.56;;;8.38;78.97
75646;BME280;64237;52.438;13.240;2023-02-22T09:16:51;101266.53;;;8.39;78.07
75646;BME280;64237;52.438;13.240;2023-02-22T09:19:17;101265.41;;;8.46;77.76
75646;BME280;64237;52.438;13.240;2023-02-22T09:21:42;101265.19;;;8.54;76.88
75646;BME280;64237;52.438;13.240;2023-02-22T09:24:07;101260.50;;;8.62;77.09
75646;BME280;64237;52.438;13.240;2023-02-22T09:26:37;101269.00;;;8.60;76.08
75646;BME280;64237;52.438;13.240;2023-02-22T09:29:07;101266.59;;;8.70;75.72
75646;BME280;64237;52.438;13.240;2023-02-22T09:31:38;101264.47;;;8.72;75.75
75646;BME280;64237;52.438;13.240;2023-02-22T09:34:05;101269.34;;;8.77;76.65
75646;BME280;64237;52.438;13.240;2023-02-22T09:36:39;101270.13;;;8.90;76.56
75646;BME280;64237;52.438;13.240;2023-02-22T09:39:05;101264.81;;;8.89;75.30
75646;BME280;64237;52.438;13.240;2023-02-22T09:41:38;101265.88;;;8.88;75.54
75646;BME280;64237;52.438;13.240;2023-02-22T09:44:21;101265.88;;;8.88;74.88
75646;BME280;64237;52.438;13.240;2023-02-22T09:46:48;101264.03;;;8.82;75.38
75646;BME280;64237;52.438;13.240;2023-02-22T09:51:46;101257.47;;;8.76;74.99
75646;BME280;64237;52.438;13.240;2023-02-22T09:54:33;101251.09;;;8.82;74.88
75646;BME280;64237;52.438;13.240;2023-02-22T09:57:06;101254.41;;;8.91;73.71
75646;BME280;64237;52.438;13.240;2023-02-22T09:59:50;101259.72;;;8.92;73.22
75646;BME280;64237;52.438;13.240;2023-02-22T10:02:30;101252.16;;;8.81;74.34
75646;BME280;64237;52.438;13.240;2023-02-22T10:05:09;101244.66;;;8.88;73.56
75646;BME280;64237;52.438;13.240;2023-02-22T10:07:45;101250.19;;;8.88;74.26
75646;BME280;64237;52.438;13.240;2023-02-22T10:10:20;101244.31;;;8.78;74.17
75646;BME280;64237;52.438;13.240;2023-02-22T10:15:33;101247.19;;;8.97;72.57
75646;BME280;64237;52.438;13.240;2023-02-22T10:23:33;101239.84;;;9.15;72.80
75646;BME280;64237;52.438;13.240;2023-02-22T10:26:14;101237.41;;;10.07;72.31
75646;BME280;64237;52.438;13.240;2023-02-22T10:29:00;101230.22;;;9.81;69.72
75646;BME280;64237;52.438;13.240;2023-02-22T10:31:33;101238.72;;;9.54;71.55
75646;BME280;64237;52.438;13.240;2023-02-22T10:34:02;101231.69;;;9.58;70.79
75646;BME280;64237;52.438;13.240;2023-02-22T10:36:30;101237.28;;;9.52;72.15
75646;BME280;64237;52.438;13.240;2023-02-22T10:38:58;101239.28;;;9.38;70.39
75646;BME280;64237;52.438;13.240;2023-02-22T10:41:32;101236.25;;;9.46;70.07
75646;BME280;64237;52.438;13.240;2023-02-22T10:44:00;101236.69;;;9.43;71.07
75646;BME280;64237;52.438;13.240;2023-02-22T10:46:28;101236.81;;;9.30;70.66
75646;BME280;64237;52.438;13.240;2023-02-22T10:48:59;101234.81;;;9.37;70.58
75646;BME280;64237;52.438;13.240;2023-02-22T10:51:28;101230.47;;;9.23;71.12
75646;BME280;64237;52.438;13.240;2023-02-22T10:54:22;101239.28;;;9.38;70.52
75646;BME280;64237;52.438;13.240;2023-02-22T10:56:52;101232.91;;;9.38;69.06
75646;BME280;64237;52.438;13.240;2023-02-22T10:59:36;101233.84;;;9.25;68.90
75646;BME280;64237;52.438;13.240;2023-02-22T11:02:18;101227.97;;;9.46;69.71
75646;BME280;64237;52.438;13.240;2023-02-22T11:04:52;101232.06;;;9.37;69.72
75646;BME280;64237;52.438;13.240;2023-02-22T11:07:33;101229.03;;;9.45;70.92
75646;BME280;64237;52.438;13.240;2023-02-22T11:10:05;101233.53;;;9.40;70.05
75646;BME280;64237;52.438;13.240;2023-02-22T11:12:39;101229.03;;;9.45;68.22
75646;BME280;64237;52.438;13.240;2023-02-22T11:17:50;101229.09;;;9.32;70.06
75646;BME280;64237;52.438;13.240;2023-02-22T11:20:31;101227.31;;;9.51;68.92
75646;BME280;64237;52.438;13.240;2023-02-22T11:23:01;101222.94;;;9.61;68.53
75646;BME280;64237;52.438;13.240;2023-02-22T11:25:31;101218.59;;;9.47;69.75
75646;BME280;64237;52.438;13.240;2023-02-22T11:28:27;101212.78;;;9.55;70.20
75646;BME280;64237;52.438;13.240;2023-02-22T11:31:15;101214.06;;;9.53;70.49
75646;BME280;64237;52.438;13.240;2023-02-22T11:36:48;101216.97;;;9.65;70.37
75646;BME280;64237;52.438;13.240;2023-02-22T11:41:46;101198.91;;;9.87;69.06
75646;BME280;64237;52.438;13.240;2023-02-22T11:44:28;101198.31;;;9.60;69.71
75646;BME280;64237;52.438;13.240;2023-02-22T11:47:00;101198.25;;;9.67;69.43
75646;BME280;64237;52.438;13.240;2023-02-22T11:49:42;101196.97;;;9.69;70.13
75646;BME280;64237;52.438;13.240;2023-02-22T11:55:05;101187.31;;;9.53;69.24
75646;BME280;64237;52.438;13.240;2023-02-22T11:58:04;101194.44;;;9.68;70.01
75646;BME280;64237;52.438;13.240;2023-02-22T12:03:31;101179.19;;;9.58;69.10
75646;BME280;64237;52.438;13.240;2023-02-22T12:06:27;101179.03;;;9.53;70.63
75646;BME280;64237;52.438;13.240;2023-02-22T12:17:10;101173.22;;;9.61;68.85
75646;BME280;64237;52.438;13.240;2023-02-22T12:19:48;101170.94;;;9.77;69.57
75646;BME280;64237;52.438;13.240;2023-02-22T12:22:21;101163.38;;;9.72;69.55
75646;BME280;64237;52.438;13.240;2023-02-22T12:25:16;101173.56;;;9.72;70.31
75646;BME280;64237;52.438;13.240;2023-02-22T12:27:58;101178.56;;;9.56;70.66
75646;BME280;64237;52.438;13.240;2023-02-22T12:30:28;101165.59;;;9.57;70.50
75646;BME280;64237;52.438;13.240;2023-02-22T12:33:02;101166.00;;;9.60;71.45
75646;BME280;64237;52.438;13.240;2023-02-22T12:35:34;101166.47;;;9.57;69.63
75646;BME280;64237;52.438;13.240;2023-02-22T12:38:21;101169.66;;;9.54;69.80
75646;BME280;64237;52.438;13.240;2023-02-22T12:41:06;101177.44;;;9.64;70.29
75646;BME280;64237;52.438;13.240;2023-02-22T12:43:39;101167.25;;;9.65;70.27
75646;BME280;64237;52.438;13.240;2023-02-22T12:51:45;101169.13;;;9.89;70.06
75646;BME280;64237;52.438;13.240;2023-02-22T12:54:15;101170.56;;;9.73;70.43
75646;BME280;64237;52.438;13.240;2023-02-22T12:59:21;101166.53;;;9.94;69.12
75646;BME280;64237;52.438;13.240;2023-02-22T13:01:52;101166.53;;;9.94;70.29
75646;BME280;64237;52.438;13.240;2023-02-22T13:04:19;101168.41;;;9.75;69.60
75646;BME280;64237;52.438;13.240;2023-02-22T13:07:04;101165.75;;;9.87;70.46
75646;BME280;64237;52.438;13.240;2023-02-22T13:17:47;101144.88;;;9.91;70.03
75646;BME280;64237;52.438;13.240;2023-02-22T13:22:59;101135.03;;;9.77;70.31
75646;BME280;64237;52.438;13.240;2023-02-22T13:25:47;101147.41;;;9.92;70.14
75646;BME280;64237;52.438;13.240;2023-02-22T13:28:45;101147.41;;;9.92;69.20
75646;BME280;64237;52.438;13.240;2023-02-22T13:31:39;101143.31;;;9.77;69.69
75646;BME280;64237;52.438;13.240;2023-02-22T13:53:14;101131.97;;;10.03;67.97
75646;BME280;64237;52.438;13.240;2023-02-22T13:55:42;101136.44;;;10.04;69.41
75646;BME280;64237;52.438;13.240;2023-02-22T13:58:11;101137.66;;;9.90;68.07
75646;BME280;64237;52.438;13.240;2023-02-22T14:00:41;101140.09;;;9.98;67.89
75646;BME280;64237;52.438;13.240;2023-02-22T14:13:08;101130.22;;;10.09;67.97
75646;BME280;64237;52.438;13.240;2023-02-22T14:15:34;101122.22;;;10.01;67.86
75646;BME280;64237;52.438;13.240;2023-02-22T14:18:15;101126.28;;;9.80;68.70
75646;BME280;64237;52.438;13.240;2023-02-22T14:20:41;101115.09;;;9.93;68.59
75646;BME280;64237;52.438;13.240;2023-02-22T14:23:41;101120.00;;;9.91;68.81
75646;BME280;64237;52.438;13.240;2023-02-22T14:31:21;101123.34;;;9.75;68.50
75646;BME280;64237;52.438;13.240;2023-02-22T14:33:57;101121.81;;;9.79;68.59
75646;BME280;64237;52.438;13.240;2023-02-22T14:39:09;101115.56;;;9.90;68.30
75646;BME280;64237;52.438;13.240;2023-02-22T14:41:37;101113.88;;;9.89;68.18
75646;BME280;64237;52.438;13.240;2023-02-22T14:44:05;101115.41;;;9.85;66.90
75646;BME280;64237;52.438;13.240;2023-02-22T14:46:34;101108.13;;;9.90;66.69
75646;BME280;64237;52.438;13.240;2023-02-22T14:49:02;101096.50;;;9.82;66.74
75646;BME280;64237;52.438;13.240;2023-02-22T14:52:14;101113.88;;;9.89;67.12
75646;BME280;64237;52.438;13.240;2023-02-22T14:54:24;101100.44;;;9.92;66.86
75646;BME280;64237;52.438;13.240;2023-02-22T14:57:00;101100.34;;;9.81;67.49
75646;BME280;64237;52.438;13.240;2023-02-22T14:59:45;101105.97;;;9.74;67.92
75646;BME280;64237;52.438;13.240;2023-02-22T15:02:12;101102.19;;;9.69;69.34
75646;BME280;64237;52.438;13.240;2023-02-22T15:04:39;101100.03;;;9.71;69.36
75646;BME280;64237;52.438;13.240;2023-02-22T15:07:26;101106.47;;;9.65;68.02
75646;BME280;64237;52.438;13.240;2023-02-22T15:10:19;101091.13;;;9.50;68.19
75646;BME280;64237;52.438;13.240;2023-02-22T15:12:59;101097.72;;;9.49;68.74
75646;BME280;64237;52.438;13.240;2023-02-22T15:15:48;101090.94;;;9.45;68.70
75646;BME280;64237;52.438;13.240;2023-02-22T15:18:19;101089.88;;;9.46;68.27